HEBL METAR and TAF | Updated Today

HEBL METAR

Abu Simbel Airport

Observation time: 80 min. ago

HEBL 062000Z 34005KT CAVOK 32/13 Q1010 NOSIG

Need help? Read our tutorial on how to read METARs or read the parsed version below.

Abu Simbel Airport (HEBL) METAR

  • Weather conditions on Thu, 06 Oct 2022 20:00:00 +0000 (80 min. ago):
  • Present conditions: Dry
  • Clouds: Clear skies
  • Visibility: Greater than 10 km
  • Wind: 340 degrees at 5 knots
  • Temperature: 32 celsius
  • Dew point: 13 celsius
  • Pressure: 1010 millibars
  • Remarks: None


Useful to know...

HEBL TAF

Abu Simbel Airport

TAF HEBL 061700Z 0618/0724 34015KT 7000 NSC TEMPO 0618/0624 FEW030 SCT070
Observation time: 4:20 hr. ago
Need help? Read our tutorial on how to read TAFs or read the parsed version below.

Parsed version of TAF for Abu Simbel Airport (HEBL)

  • From 06 October at 18:00 UTC, to day 07 of the month at 24:00 UTC
  • Clouds: No significant clouds are observed
  • Visibility: 7000 meters
  • Wind: 340 degrees at 15
  • Expected to arise temporarily, from 06 October at 18:00 UTC, to day 06 of the month at 24:00 UTC
  • Clouds: A few at 914 meters; scattered at 2134 meters

Airports near HEBL

HSSW Weather
Region: Wadi Halfa

Wadi Halfa Airport

Not found in our database